sensor_id;sensor_type;location;lat;lon;timestamp;P1;P2;P0
47705;PMS5003;33471;52.104;1.318;2022-11-11T00:01:02;2;2;
47705;PMS5003;33471;52.104;1.318;2022-11-11T00:03:31;4;4;
47705;PMS5003;33471;52.104;1.318;2022-11-11T00:06:00;1;1;
47705;PMS5003;33471;52.104;1.318;2022-11-11T00:08:27;4;4;
47705;PMS5003;33471;52.104;1.318;2022-11-11T00:10:59;4;4;
47705;PMS5003;33471;52.104;1.318;2022-11-11T00:13:27;3;3;
47705;PMS5003;33471;52.104;1.318;2022-11-11T00:15:55;4;2;
47705;PMS5003;33471;52.104;1.318;2022-11-11T00:18:23;3;3;
47705;PMS5003;33471;52.104;1.318;2022-11-11T00:20:50;3;3;
47705;PMS5003;33471;52.104;1.318;2022-11-11T00:23:19;2;2;
47705;PMS5003;33471;52.104;1.318;2022-11-11T00:25:50;4;4;
47705;PMS5003;33471;52.104;1.318;2022-11-11T00:28:18;2;2;
47705;PMS5003;33471;52.104;1.318;2022-11-11T00:30:45;5;5;
47705;PMS5003;33471;52.104;1.318;2022-11-11T00:33:13;1;1;
47705;PMS5003;33471;52.104;1.318;2022-11-11T00:35:40;1;1;
47705;PMS5003;33471;52.104;1.318;2022-11-11T00:38:07;2;2;
47705;PMS5003;33471;52.104;1.318;2022-11-11T00:40:35;2;1;
47705;PMS5003;33471;52.104;1.318;2022-11-11T00:43:02;3;1;
47705;PMS5003;33471;52.104;1.318;2022-11-11T00:45:29;2;2;
47705;PMS5003;33471;52.104;1.318;2022-11-11T00:47:56;5;3;
47705;PMS5003;33471;52.104;1.318;2022-11-11T00:50:24;4;2;
47705;PMS5003;33471;52.104;1.318;2022-11-11T00:52:53;2;2;
47705;PMS5003;33471;52.104;1.318;2022-11-11T00:55:20;4;2;
47705;PMS5003;33471;52.104;1.318;2022-11-11T00:57:47;2;2;
47705;PMS5003;33471;52.104;1.318;2022-11-11T01:00:15;2;2;
47705;PMS5003;33471;52.104;1.318;2022-11-11T01:02:42;3;2;
47705;PMS5003;33471;52.104;1.318;2022-11-11T01:05:10;4;4;
47705;PMS5003;33471;52.104;1.318;2022-11-11T01:07:37;6;6;
47705;PMS5003;33471;52.104;1.318;2022-11-11T01:10:05;1;1;
47705;PMS5003;33471;52.104;1.318;2022-11-11T01:12:32;1;1;
47705;PMS5003;33471;52.104;1.318;2022-11-11T01:14:59;2;2;
47705;PMS5003;33471;52.104;1.318;2022-11-11T01:17:27;2;2;
47705;PMS5003;33471;52.104;1.318;2022-11-11T01:19:54;1;1;
47705;PMS5003;33471;52.104;1.318;2022-11-11T01:22:21;1;1;
47705;PMS5003;33471;52.104;1.318;2022-11-11T01:24:49;4;3;
47705;PMS5003;33471;52.104;1.318;2022-11-11T01:27:16;3;3;
47705;PMS5003;33471;52.104;1.318;2022-11-11T01:29:44;3;3;
47705;PMS5003;33471;52.104;1.318;2022-11-11T01:32:11;5;5;
47705;PMS5003;33471;52.104;1.318;2022-11-11T01:34:39;3;2;
47705;PMS5003;33471;52.104;1.318;2022-11-11T01:37:06;3;2;
47705;PMS5003;33471;52.104;1.318;2022-11-11T01:39:33;3;3;
47705;PMS5003;33471;52.104;1.318;2022-11-11T01:42:00;2;2;
47705;PMS5003;33471;52.104;1.318;2022-11-11T01:44:45;3;3;
47705;PMS5003;33471;52.104;1.318;2022-11-11T01:47:13;1;1;
47705;PMS5003;33471;52.104;1.318;2022-11-11T01:49:45;1;1;
47705;PMS5003;33471;52.104;1.318;2022-11-11T01:52:17;1;0;
47705;PMS5003;33471;52.104;1.318;2022-11-11T01:54:49;1;1;
47705;PMS5003;33471;52.104;1.318;2022-11-11T01:57:21;1;1;
47705;PMS5003;33471;52.104;1.318;2022-11-11T01:59:55;4;4;
47705;PMS5003;33471;52.104;1.318;2022-11-11T02:02:32;1;1;
47705;PMS5003;33471;52.104;1.318;2022-11-11T02:05:07;3;3;
47705;PMS5003;33471;52.104;1.318;2022-11-11T02:07:37;2;2;
47705;PMS5003;33471;52.104;1.318;2022-11-11T02:10:07;3;2;
47705;PMS5003;33471;52.104;1.318;2022-11-11T02:12:35;1;1;
47705;PMS5003;33471;52.104;1.318;2022-11-11T02:15:02;2;2;
47705;PMS5003;33471;52.104;1.318;2022-11-11T02:17:30;2;2;
47705;PMS5003;33471;52.104;1.318;2022-11-11T02:19:58;2;2;
47705;PMS5003;33471;52.104;1.318;2022-11-11T02:22:30;2;2;
47705;PMS5003;33471;52.104;1.318;2022-11-11T02:25:05;2;2;
47705;PMS5003;33471;52.104;1.318;2022-11-11T02:27:36;1;1;
47705;PMS5003;33471;52.104;1.318;2022-11-11T02:30:07;2;2;
47705;PMS5003;33471;52.104;1.318;2022-11-11T02:32:35;1;1;
47705;PMS5003;33471;52.104;1.318;2022-11-11T02:35:07;3;3;
47705;PMS5003;33471;52.104;1.318;2022-11-11T02:37:38;1;1;
47705;PMS5003;33471;52.104;1.318;2022-11-11T02:40:08;1;1;
47705;PMS5003;33471;52.104;1.318;2022-11-11T02:42:38;2;2;
47705;PMS5003;33471;52.104;1.318;2022-11-11T02:45:06;1;1;
47705;PMS5003;33471;52.104;1.318;2022-11-11T02:47:33;0;0;
47705;PMS5003;33471;52.104;1.318;2022-11-11T02:50:01;3;3;
47705;PMS5003;33471;52.104;1.318;2022-11-11T02:52:29;2;2;
47705;PMS5003;33471;52.104;1.318;2022-11-11T02:54:56;1;1;
47705;PMS5003;33471;52.104;1.318;2022-11-11T02:57:23;3;3;
47705;PMS5003;33471;52.104;1.318;2022-11-11T02:59:50;2;0;
47705;PMS5003;33471;52.104;1.318;2022-11-11T03:02:18;1;1;
47705;PMS5003;33471;52.104;1.318;2022-11-11T03:04:46;9;7;
47705;PMS5003;33471;52.104;1.318;2022-11-11T03:07:13;2;2;
47705;PMS5003;33471;52.104;1.318;2022-11-11T03:09:41;2;2;
47705;PMS5003;33471;52.104;1.318;2022-11-11T03:12:09;1;1;
47705;PMS5003;33471;52.104;1.318;2022-11-11T03:14:36;1;1;
47705;PMS5003;33471;52.104;1.318;2022-11-11T03:17:03;3;3;
47705;PMS5003;33471;52.104;1.318;2022-11-11T03:19:30;2;1;
47705;PMS5003;33471;52.104;1.318;2022-11-11T03:21:57;1;1;
47705;PMS5003;33471;52.104;1.318;2022-11-11T03:24:24;1;0;
47705;PMS5003;33471;52.104;1.318;2022-11-11T03:26:52;1;1;
47705;PMS5003;33471;52.104;1.318;2022-11-11T03:29:19;2;2;
47705;PMS5003;33471;52.104;1.318;2022-11-11T03:31:46;2;2;
47705;PMS5003;33471;52.104;1.318;2022-11-11T03:34:14;0;0;
47705;PMS5003;33471;52.104;1.318;2022-11-11T03:36:41;5;3;
47705;PMS5003;33471;52.104;1.318;2022-11-11T03:39:08;1;1;
47705;PMS5003;33471;52.104;1.318;2022-11-11T03:41:35;1;1;
47705;PMS5003;33471;52.104;1.318;2022-11-11T03:44:02;1;1;
47705;PMS5003;33471;52.104;1.318;2022-11-11T03:46:29;2;2;
47705;PMS5003;33471;52.104;1.318;2022-11-11T03:48:56;1;1;
47705;PMS5003;33471;52.104;1.318;2022-11-11T03:51:23;0;0;
47705;PMS5003;33471;52.104;1.318;2022-11-11T03:53:50;2;2;
47705;PMS5003;33471;52.104;1.318;2022-11-11T03:56:17;2;2;
47705;PMS5003;33471;52.104;1.318;2022-11-11T03:58:45;3;3;
47705;PMS5003;33471;52.104;1.318;2022-11-11T04:01:12;3;3;
47705;PMS5003;33471;52.104;1.318;2022-11-11T04:03:40;2;2;
47705;PMS5003;33471;52.104;1.318;2022-11-11T04:06:07;5;5;
47705;PMS5003;33471;52.104;1.318;2022-11-11T04:08:35;4;4;
47705;PMS5003;33471;52.104;1.318;2022-11-11T04:11:04;1;1;
47705;PMS5003;33471;52.104;1.318;2022-11-11T04:13:34;2;2;
47705;PMS5003;33471;52.104;1.318;2022-11-11T04:16:02;4;3;
47705;PMS5003;33471;52.104;1.318;2022-11-11T04:18:30;2;2;
47705;PMS5003;33471;52.104;1.318;2022-11-11T04:20:57;2;2;
47705;PMS5003;33471;52.104;1.318;2022-11-11T04:23:25;6;2;
47705;PMS5003;33471;52.104;1.318;2022-11-11T04:25:52;3;3;
47705;PMS5003;33471;52.104;1.318;2022-11-11T04:28:19;1;1;
47705;PMS5003;33471;52.104;1.318;2022-11-11T04:30:46;5;5;
47705;PMS5003;33471;52.104;1.318;2022-11-11T04:33:14;4;3;
47705;PMS5003;33471;52.104;1.318;2022-11-11T04:35:41;4;4;
47705;PMS5003;33471;52.104;1.318;2022-11-11T04:38:08;3;3;
47705;PMS5003;33471;52.104;1.318;2022-11-11T04:40:35;2;2;
47705;PMS5003;33471;52.104;1.318;2022-11-11T04:43:02;5;5;
47705;PMS5003;33471;52.104;1.318;2022-11-11T04:45:30;5;4;
47705;PMS5003;33471;52.104;1.318;2022-11-11T04:47:57;5;3;
47705;PMS5003;33471;52.104;1.318;2022-11-11T04:50:27;9;9;
47705;PMS5003;33471;52.104;1.318;2022-11-11T04:52:55;3;3;
47705;PMS5003;33471;52.104;1.318;2022-11-11T04:55:22;5;3;
47705;PMS5003;33471;52.104;1.318;2022-11-11T04:57:49;3;3;
47705;PMS5003;33471;52.104;1.318;2022-11-11T05:00:17;6;5;
47705;PMS5003;33471;52.104;1.318;2022-11-11T05:02:44;5;5;
47705;PMS5003;33471;52.104;1.318;2022-11-11T05:05:12;3;3;
47705;PMS5003;33471;52.104;1.318;2022-11-11T05:07:39;4;4;
47705;PMS5003;33471;52.104;1.318;2022-11-11T05:10:07;4;4;
47705;PMS5003;33471;52.104;1.318;2022-11-11T05:12:34;5;5;
47705;PMS5003;33471;52.104;1.318;2022-11-11T05:15:01;4;4;
47705;PMS5003;33471;52.104;1.318;2022-11-11T05:17:29;7;7;
47705;PMS5003;33471;52.104;1.318;2022-11-11T05:19:56;8;8;
47705;PMS5003;33471;52.104;1.318;2022-11-11T05:22:24;7;4;
47705;PMS5003;33471;52.104;1.318;2022-11-11T05:24:54;4;4;
47705;PMS5003;33471;52.104;1.318;2022-11-11T05:27:22;5;5;
47705;PMS5003;33471;52.104;1.318;2022-11-11T05:29:49;8;7;
47705;PMS5003;33471;52.104;1.318;2022-11-11T05:32:17;6;6;
47705;PMS5003;33471;52.104;1.318;2022-11-11T05:34:45;6;6;
47705;PMS5003;33471;52.104;1.318;2022-11-11T05:37:13;8;8;
47705;PMS5003;33471;52.104;1.318;2022-11-11T05:39:42;10;10;
47705;PMS5003;33471;52.104;1.318;2022-11-11T05:42:11;7;6;
47705;PMS5003;33471;52.104;1.318;2022-11-11T05:44:38;8;6;
47705;PMS5003;33471;52.104;1.318;2022-11-11T05:47:06;7;7;
47705;PMS5003;33471;52.104;1.318;2022-11-11T05:49:33;5;5;
47705;PMS5003;33471;52.104;1.318;2022-11-11T05:52:00;8;8;
47705;PMS5003;33471;52.104;1.318;2022-11-11T05:54:28;9;9;
47705;PMS5003;33471;52.104;1.318;2022-11-11T05:56:56;7;6;
47705;PMS5003;33471;52.104;1.318;2022-11-11T05:59:23;6;6;
47705;PMS5003;33471;52.104;1.318;2022-11-11T06:01:51;4;4;
47705;PMS5003;33471;52.104;1.318;2022-11-11T06:04:17;5;5;
47705;PMS5003;33471;52.104;1.318;2022-11-11T06:06:45;5;5;
47705;PMS5003;33471;52.104;1.318;2022-11-11T06:09:12;8;8;
47705;PMS5003;33471;52.104;1.318;2022-11-11T06:11:40;7;6;
47705;PMS5003;33471;52.104;1.318;2022-11-11T06:14:08;6;6;
47705;PMS5003;33471;52.104;1.318;2022-11-11T06:16:34;6;6;
47705;PMS5003;33471;52.104;1.318;2022-11-11T06:19:02;7;7;
47705;PMS5003;33471;52.104;1.318;2022-11-11T06:21:30;5;5;
47705;PMS5003;33471;52.104;1.318;2022-11-11T06:23:57;7;7;
47705;PMS5003;33471;52.104;1.318;2022-11-11T06:26:24;7;6;
47705;PMS5003;33471;52.104;1.318;2022-11-11T06:28:52;6;5;
47705;PMS5003;33471;52.104;1.318;2022-11-11T06:31:22;7;6;
47705;PMS5003;33471;52.104;1.318;2022-11-11T06:33:51;8;8;
47705;PMS5003;33471;52.104;1.318;2022-11-11T06:36:19;5;5;
47705;PMS5003;33471;52.104;1.318;2022-11-11T06:38:47;6;6;
47705;PMS5003;33471;52.104;1.318;2022-11-11T06:41:15;8;8;
47705;PMS5003;33471;52.104;1.318;2022-11-11T06:43:42;7;5;
47705;PMS5003;33471;52.104;1.318;2022-11-11T06:46:10;7;7;
47705;PMS5003;33471;52.104;1.318;2022-11-11T06:48:43;5;5;
47705;PMS5003;33471;52.104;1.318;2022-11-11T06:51:11;7;7;
47705;PMS5003;33471;52.104;1.318;2022-11-11T06:53:39;6;6;
47705;PMS5003;33471;52.104;1.318;2022-11-11T06:56:07;11;10;
47705;PMS5003;33471;52.104;1.318;2022-11-11T06:58:35;9;6;
47705;PMS5003;33471;52.104;1.318;2022-11-11T07:01:03;8;6;
47705;PMS5003;33471;52.104;1.318;2022-11-11T07:03:31;7;6;
47705;PMS5003;33471;52.104;1.318;2022-11-11T07:05:59;7;6;
47705;PMS5003;33471;52.104;1.318;2022-11-11T07:08:27;7;7;
47705;PMS5003;33471;52.104;1.318;2022-11-11T07:10:54;6;6;
47705;PMS5003;33471;52.104;1.318;2022-11-11T07:13:21;9;9;
47705;PMS5003;33471;52.104;1.318;2022-11-11T07:15:49;10;9;
47705;PMS5003;33471;52.104;1.318;2022-11-11T07:18:17;17;15;
47705;PMS5003;33471;52.104;1.318;2022-11-11T07:20:44;7;6;
47705;PMS5003;33471;52.104;1.318;2022-11-11T07:23:11;3;3;
47705;PMS5003;33471;52.104;1.318;2022-11-11T07:25:38;6;6;
47705;PMS5003;33471;52.104;1.318;2022-11-11T07:28:06;8;8;
47705;PMS5003;33471;52.104;1.318;2022-11-11T07:30:33;6;6;
47705;PMS5003;33471;52.104;1.318;2022-11-11T07:33:00;4;4;
47705;PMS5003;33471;52.104;1.318;2022-11-11T07:35:28;5;4;
47705;PMS5003;33471;52.104;1.318;2022-11-11T07:37:54;8;8;
47705;PMS5003;33471;52.104;1.318;2022-11-11T07:40:21;6;6;
47705;PMS5003;33471;52.104;1.318;2022-11-11T07:42:49;9;7;
47705;PMS5003;33471;52.104;1.318;2022-11-11T07:45:17;6;6;
47705;PMS5003;33471;52.104;1.318;2022-11-11T07:47:44;8;7;
47705;PMS5003;33471;52.104;1.318;2022-11-11T07:50:12;14;13;
47705;PMS5003;33471;52.104;1.318;2022-11-11T07:52:39;4;4;
47705;PMS5003;33471;52.104;1.318;2022-11-11T07:55:06;5;5;
47705;PMS5003;33471;52.104;1.318;2022-11-11T07:57:34;6;5;
47705;PMS5003;33471;52.104;1.318;2022-11-11T08:00:03;5;5;
47705;PMS5003;33471;52.104;1.318;2022-11-11T08:02:32;5;5;
47705;PMS5003;33471;52.104;1.318;2022-11-11T08:05:00;9;9;
47705;PMS5003;33471;52.104;1.318;2022-11-11T08:07:27;7;7;
47705;PMS5003;33471;52.104;1.318;2022-11-11T08:09:55;7;7;
47705;PMS5003;33471;52.104;1.318;2022-11-11T08:12:23;5;5;
47705;PMS5003;33471;52.104;1.318;2022-11-11T08:14:50;6;6;
47705;PMS5003;33471;52.104;1.318;2022-11-11T08:17:18;7;5;
47705;PMS5003;33471;52.104;1.318;2022-11-11T08:19:45;9;8;
47705;PMS5003;33471;52.104;1.318;2022-11-11T08:22:13;5;4;
47705;PMS5003;33471;52.104;1.318;2022-11-11T08:24:40;10;8;
47705;PMS5003;33471;52.104;1.318;2022-11-11T08:27:07;7;7;
47705;PMS5003;33471;52.104;1.318;2022-11-11T08:29:35;14;13;
47705;PMS5003;33471;52.104;1.318;2022-11-11T08:32:02;7;6;
47705;PMS5003;33471;52.104;1.318;2022-11-11T08:34:30;4;4;
47705;PMS5003;33471;52.104;1.318;2022-11-11T08:36:57;7;5;
47705;PMS5003;33471;52.104;1.318;2022-11-11T08:39:24;6;5;
47705;PMS5003;33471;52.104;1.318;2022-11-11T08:41:52;7;7;
47705;PMS5003;33471;52.104;1.318;2022-11-11T08:44:19;8;7;
47705;PMS5003;33471;52.104;1.318;2022-11-11T08:46:46;7;7;
47705;PMS5003;33471;52.104;1.318;2022-11-11T08:49:14;6;6;
47705;PMS5003;33471;52.104;1.318;2022-11-11T08:51:41;12;12;
47705;PMS5003;33471;52.104;1.318;2022-11-11T08:54:09;6;6;
47705;PMS5003;33471;52.104;1.318;2022-11-11T08:56:37;4;4;
47705;PMS5003;33471;52.104;1.318;2022-11-11T08:59:05;5;5;
47705;PMS5003;33471;52.104;1.318;2022-11-11T09:01:32;5;5;
47705;PMS5003;33471;52.104;1.318;2022-11-11T09:04:00;5;5;
47705;PMS5003;33471;52.104;1.318;2022-11-11T09:06:27;6;6;
47705;PMS5003;33471;52.104;1.318;2022-11-11T09:08:54;6;6;
47705;PMS5003;33471;52.104;1.318;2022-11-11T09:11:21;7;4;
47705;PMS5003;33471;52.104;1.318;2022-11-11T09:13:49;4;4;
47705;PMS5003;33471;52.104;1.318;2022-11-11T09:16:16;6;6;
47705;PMS5003;33471;52.104;1.318;2022-11-11T09:18:44;6;6;
47705;PMS5003;33471;52.104;1.318;2022-11-11T09:21:12;5;5;
47705;PMS5003;33471;52.104;1.318;2022-11-11T09:23:40;6;6;
47705;PMS5003;33471;52.104;1.318;2022-11-11T09:26:07;4;4;
47705;PMS5003;33471;52.104;1.318;2022-11-11T09:28:34;10;6;
47705;PMS5003;33471;52.104;1.318;2022-11-11T09:31:01;7;6;
47705;PMS5003;33471;52.104;1.318;2022-11-11T09:33:29;7;6;
47705;PMS5003;33471;52.104;1.318;2022-11-11T09:35:56;5;5;
47705;PMS5003;33471;52.104;1.318;2022-11-11T09:38:24;6;6;
47705;PMS5003;33471;52.104;1.318;2022-11-11T09:40:55;14;12;
47705;PMS5003;33471;52.104;1.318;2022-11-11T09:43:34;6;6;
47705;PMS5003;33471;52.104;1.318;2022-11-11T09:46:14;7;7;
47705;PMS5003;33471;52.104;1.318;2022-11-11T09:48:51;10;8;
47705;PMS5003;33471;52.104;1.318;2022-11-11T09:51:35;6;4;
47705;PMS5003;33471;52.104;1.318;2022-11-11T09:54:11;8;6;
47705;PMS5003;33471;52.104;1.318;2022-11-11T09:56:44;6;6;
47705;PMS5003;33471;52.104;1.318;2022-11-11T09:59:14;9;7;
47705;PMS5003;33471;52.104;1.318;2022-11-11T10:01:45;6;4;
47705;PMS5003;33471;52.104;1.318;2022-11-11T10:04:22;5;5;
47705;PMS5003;33471;52.104;1.318;2022-11-11T10:06:56;6;6;
47705;PMS5003;33471;52.104;1.318;2022-11-11T10:09:30;5;5;
47705;PMS5003;33471;52.104;1.318;2022-11-11T10:12:06;13;13;
47705;PMS5003;33471;52.104;1.318;2022-11-11T10:14:37;8;6;
47705;PMS5003;33471;52.104;1.318;2022-11-11T10:17:11;9;9;
47705;PMS5003;33471;52.104;1.318;2022-11-11T10:19:51;6;4;
47705;PMS5003;33471;52.104;1.318;2022-11-11T10:22:30;8;6;
47705;PMS5003;33471;52.104;1.318;2022-11-11T10:25:05;9;7;
47705;PMS5003;33471;52.104;1.318;2022-11-11T10:27:34;10;10;
47705;PMS5003;33471;52.104;1.318;2022-11-11T10:30:07;5;5;
47705;PMS5003;33471;52.104;1.318;2022-11-11T10:32:41;7;7;
47705;PMS5003;33471;52.104;1.318;2022-11-11T10:35:14;10;7;
47705;PMS5003;33471;52.104;1.318;2022-11-11T10:37:43;4;4;
47705;PMS5003;33471;52.104;1.318;2022-11-11T10:40:14;4;4;
47705;PMS5003;33471;52.104;1.318;2022-11-11T10:42:47;4;4;
47705;PMS5003;33471;52.104;1.318;2022-11-11T10:45:20;5;5;
47705;PMS5003;33471;52.104;1.318;2022-11-11T10:47:52;5;5;
47705;PMS5003;33471;52.104;1.318;2022-11-11T10:50:25;3;3;
47705;PMS5003;33471;52.104;1.318;2022-11-11T10:52:58;6;4;
47705;PMS5003;33471;52.104;1.318;2022-11-11T10:55:34;4;4;
47705;PMS5003;33471;52.104;1.318;2022-11-11T10:58:09;4;4;
47705;PMS5003;33471;52.104;1.318;2022-11-11T11:00:40;7;7;
47705;PMS5003;33471;52.104;1.318;2022-11-11T11:03:12;6;6;
47705;PMS5003;33471;52.104;1.318;2022-11-11T11:05:46;8;5;
47705;PMS5003;33471;52.104;1.318;2022-11-11T11:08:19;6;6;
47705;PMS5003;33471;52.104;1.318;2022-11-11T11:10:51;12;10;
47705;PMS5003;33471;52.104;1.318;2022-11-11T11:13:23;12;8;
47705;PMS5003;33471;52.104;1.318;2022-11-11T11:16:02;18;16;
47705;PMS5003;33471;52.104;1.318;2022-11-11T11:18:34;10;10;
47705;PMS5003;33471;52.104;1.318;2022-11-11T11:21:02;6;6;
47705;PMS5003;33471;52.104;1.318;2022-11-11T11:23:35;11;9;
47705;PMS5003;33471;52.104;1.318;2022-11-11T11:26:03;7;7;
47705;PMS5003;33471;52.104;1.318;2022-11-11T11:28:31;5;5;
47705;PMS5003;33471;52.104;1.318;2022-11-11T11:31:01;5;5;
47705;PMS5003;33471;52.104;1.318;2022-11-11T11:34:04;9;5;
47705;PMS5003;33471;52.104;1.318;2022-11-11T11:36:32;9;9;
47705;PMS5003;33471;52.104;1.318;2022-11-11T11:38:59;5;5;
47705;PMS5003;33471;52.104;1.318;2022-11-11T11:41:43;8;7;
47705;PMS5003;33471;52.104;1.318;2022-11-11T11:44:27;4;4;
47705;PMS5003;33471;52.104;1.318;2022-11-11T11:46:59;6;5;
47705;PMS5003;33471;52.104;1.318;2022-11-11T11:49:40;6;4;
47705;PMS5003;33471;52.104;1.318;2022-11-11T11:52:26;4;4;
47705;PMS5003;33471;52.104;1.318;2022-11-11T11:55:03;5;5;
47705;PMS5003;33471;52.104;1.318;2022-11-11T11:57:40;3;3;
47705;PMS5003;33471;52.104;1.318;2022-11-11T12:00:18;5;4;
47705;PMS5003;33471;52.104;1.318;2022-11-11T12:02:57;2;2;
47705;PMS5003;33471;52.104;1.318;2022-11-11T12:05:42;8;8;
47705;PMS5003;33471;52.104;1.318;2022-11-11T12:08:18;3;3;
47705;PMS5003;33471;52.104;1.318;2022-11-11T12:11:00;5;5;
47705;PMS5003;33471;52.104;1.318;2022-11-11T12:13:40;7;7;
47705;PMS5003;33471;52.104;1.318;2022-11-11T12:16:23;3;3;
47705;PMS5003;33471;52.104;1.318;2022-11-11T12:19:03;7;7;
47705;PMS5003;33471;52.104;1.318;2022-11-11T12:21:50;4;4;
47705;PMS5003;33471;52.104;1.318;2022-11-11T12:24:30;9;6;
47705;PMS5003;33471;52.104;1.318;2022-11-11T12:27:11;3;3;
47705;PMS5003;33471;52.104;1.318;2022-11-11T12:29:53;3;2;
47705;PMS5003;33471;52.104;1.318;2022-11-11T12:32:36;4;4;
47705;PMS5003;33471;52.104;1.318;2022-11-11T12:35:16;4;4;
47705;PMS5003;33471;52.104;1.318;2022-11-11T12:37:55;3;3;
47705;PMS5003;33471;52.104;1.318;2022-11-11T12:40:38;5;4;
47705;PMS5003;33471;52.104;1.318;2022-11-11T12:43:15;5;4;
47705;PMS5003;33471;52.104;1.318;2022-11-11T12:45:48;5;5;
47705;PMS5003;33471;52.104;1.318;2022-11-11T12:48:37;4;4;
47705;PMS5003;33471;52.104;1.318;2022-11-11T12:51:19;5;4;
47705;PMS5003;33471;52.104;1.318;2022-11-11T12:54:00;5;5;
47705;PMS5003;33471;52.104;1.318;2022-11-11T12:56:40;10;9;
47705;PMS5003;33471;52.104;1.318;2022-11-11T12:59:17;5;5;
47705;PMS5003;33471;52.104;1.318;2022-11-11T13:01:56;5;5;
47705;PMS5003;33471;52.104;1.318;2022-11-11T13:04:46;6;5;
47705;PMS5003;33471;52.104;1.318;2022-11-11T13:07:44;8;7;
47705;PMS5003;33471;52.104;1.318;2022-11-11T13:10:26;4;4;
47705;PMS5003;33471;52.104;1.318;2022-11-11T13:13:16;3;3;
47705;PMS5003;33471;52.104;1.318;2022-11-11T13:15:58;5;5;
47705;PMS5003;33471;52.104;1.318;2022-11-11T13:18:26;7;6;
47705;PMS5003;33471;52.104;1.318;2022-11-11T13:21:03;7;7;
47705;PMS5003;33471;52.104;1.318;2022-11-11T13:23:37;6;6;
47705;PMS5003;33471;52.104;1.318;2022-11-11T13:26:05;8;8;
47705;PMS5003;33471;52.104;1.318;2022-11-11T13:28:43;7;7;
47705;PMS5003;33471;52.104;1.318;2022-11-11T13:31:17;8;6;
47705;PMS5003;33471;52.104;1.318;2022-11-11T13:33:52;10;10;
47705;PMS5003;33471;52.104;1.318;2022-11-11T13:36:24;9;9;
47705;PMS5003;33471;52.104;1.318;2022-11-11T13:38:54;6;6;
47705;PMS5003;33471;52.104;1.318;2022-11-11T13:41:28;9;9;
47705;PMS5003;33471;52.104;1.318;2022-11-11T13:43:58;7;6;
47705;PMS5003;33471;52.104;1.318;2022-11-11T13:46:31;5;5;
47705;PMS5003;33471;52.104;1.318;2022-11-11T13:49:04;5;5;
47705;PMS5003;33471;52.104;1.318;2022-11-11T13:51:36;6;6;
47705;PMS5003;33471;52.104;1.318;2022-11-11T13:54:05;7;6;
47705;PMS5003;33471;52.104;1.318;2022-11-11T13:56:46;8;7;
47705;PMS5003;33471;52.104;1.318;2022-11-11T13:59:18;5;5;
47705;PMS5003;33471;52.104;1.318;2022-11-11T14:02:11;6;6;
47705;PMS5003;33471;52.104;1.318;2022-11-11T14:05:30;5;5;
47705;PMS5003;33471;52.104;1.318;2022-11-11T14:07:57;4;4;
47705;PMS5003;33471;52.104;1.318;2022-11-11T14:10:57;6;5;
47705;PMS5003;33471;52.104;1.318;2022-11-11T14:13:41;5;4;
47705;PMS5003;33471;52.104;1.318;2022-11-11T14:16:08;6;6;
47705;PMS5003;33471;52.104;1.318;2022-11-11T14:18:38;5;4;
47705;PMS5003;33471;52.104;1.318;2022-11-11T14:21:07;8;7;
47705;PMS5003;33471;52.104;1.318;2022-11-11T14:23:36;10;10;
47705;PMS5003;33471;52.104;1.318;2022-11-11T14:26:38;8;8;
47705;PMS5003;33471;52.104;1.318;2022-11-11T14:29:13;10;10;
47705;PMS5003;33471;52.104;1.318;2022-11-11T14:31:48;5;5;
47705;PMS5003;33471;52.104;1.318;2022-11-11T14:34:32;7;6;
47705;PMS5003;33471;52.104;1.318;2022-11-11T14:37:14;6;6;
47705;PMS5003;33471;52.104;1.318;2022-11-11T14:39:52;9;9;
47705;PMS5003;33471;52.104;1.318;2022-11-11T14:42:53;7;7;
47705;PMS5003;33471;52.104;1.318;2022-11-11T14:45:53;5;5;
47705;PMS5003;33471;52.104;1.318;2022-11-11T14:49:00;7;6;
47705;PMS5003;33471;52.104;1.318;2022-11-11T14:51:37;7;7;
47705;PMS5003;33471;52.104;1.318;2022-11-11T14:54:15;7;6;
47705;PMS5003;33471;52.104;1.318;2022-11-11T14:56:52;7;6;
47705;PMS5003;33471;52.104;1.318;2022-11-11T14:59:26;5;3;
47705;PMS5003;33471;52.104;1.318;2022-11-11T15:01:54;5;5;
47705;PMS5003;33471;52.104;1.318;2022-11-11T15:04:23;9;7;
47705;PMS5003;33471;52.104;1.318;2022-11-11T15:06:52;11;11;
47705;PMS5003;33471;52.104;1.318;2022-11-11T15:09:38;5;5;
47705;PMS5003;33471;52.104;1.318;2022-11-11T15:12:20;5;5;
47705;PMS5003;33471;52.104;1.318;2022-11-11T15:15:00;9;7;
47705;PMS5003;33471;52.104;1.318;2022-11-11T15:17:37;4;4;
47705;PMS5003;33471;52.104;1.318;2022-11-11T15:20:19;8;7;
47705;PMS5003;33471;52.104;1.318;2022-11-11T15:23:01;4;4;
47705;PMS5003;33471;52.104;1.318;2022-11-11T15:25:42;7;5;
47705;PMS5003;33471;52.104;1.318;2022-11-11T15:28:20;5;5;
47705;PMS5003;33471;52.104;1.318;2022-11-11T15:31:08;6;6;
47705;PMS5003;33471;52.104;1.318;2022-11-11T15:33:49;6;6;
47705;PMS5003;33471;52.104;1.318;2022-11-11T15:36:28;8;8;
47705;PMS5003;33471;52.104;1.318;2022-11-11T15:39:05;6;6;
47705;PMS5003;33471;52.104;1.318;2022-11-11T15:41:38;7;6;
47705;PMS5003;33471;52.104;1.318;2022-11-11T15:44:07;5;5;
47705;PMS5003;33471;52.104;1.318;2022-11-11T15:46:44;7;6;
47705;PMS5003;33471;52.104;1.318;2022-11-11T15:49:12;8;8;
47705;PMS5003;33471;52.104;1.318;2022-11-11T15:51:40;8;8;
47705;PMS5003;33471;52.104;1.318;2022-11-11T15:54:09;6;6;
47705;PMS5003;33471;52.104;1.318;2022-11-11T15:56:45;10;9;
47705;PMS5003;33471;52.104;1.318;2022-11-11T15:59:16;9;9;
47705;PMS5003;33471;52.104;1.318;2022-11-11T16:01:47;8;8;
47705;PMS5003;33471;52.104;1.318;2022-11-11T16:04:17;9;9;
47705;PMS5003;33471;52.104;1.318;2022-11-11T16:06:47;16;16;
47705;PMS5003;33471;52.104;1.318;2022-11-11T16:09:15;10;10;
47705;PMS5003;33471;52.104;1.318;2022-11-11T16:11:48;11;10;
47705;PMS5003;33471;52.104;1.318;2022-11-11T16:14:20;11;10;
47705;PMS5003;33471;52.104;1.318;2022-11-11T16:16:51;16;14;
47705;PMS5003;33471;52.104;1.318;2022-11-11T16:19:26;12;12;
47705;PMS5003;33471;52.104;1.318;2022-11-11T16:22:01;11;10;
47705;PMS5003;33471;52.104;1.318;2022-11-11T16:24:32;8;8;
47705;PMS5003;33471;52.104;1.318;2022-11-11T16:27:03;10;9;
47705;PMS5003;33471;52.104;1.318;2022-11-11T16:29:32;12;11;
47705;PMS5003;33471;52.104;1.318;2022-11-11T16:32:15;9;9;
47705;PMS5003;33471;52.104;1.318;2022-11-11T16:34:57;11;8;
47705;PMS5003;33471;52.104;1.318;2022-11-11T16:37:24;17;17;
47705;PMS5003;33471;52.104;1.318;2022-11-11T16:39:52;13;10;
47705;PMS5003;33471;52.104;1.318;2022-11-11T16:42:21;13;12;
47705;PMS5003;33471;52.104;1.318;2022-11-11T16:44:52;14;14;
47705;PMS5003;33471;52.104;1.318;2022-11-11T16:47:39;18;16;
47705;PMS5003;33471;52.104;1.318;2022-11-11T16:50:11;13;13;
47705;PMS5003;33471;52.104;1.318;2022-11-11T16:52:43;16;15;
47705;PMS5003;33471;52.104;1.318;2022-11-11T16:55:17;17;17;
47705;PMS5003;33471;52.104;1.318;2022-11-11T16:57:48;12;12;
47705;PMS5003;33471;52.104;1.318;2022-11-11T17:00:17;17;17;
47705;PMS5003;33471;52.104;1.318;2022-11-11T17:02:47;15;14;
47705;PMS5003;33471;52.104;1.318;2022-11-11T17:05:49;10;10;
47705;PMS5003;33471;52.104;1.318;2022-11-11T17:08:34;11;11;
47705;PMS5003;33471;52.104;1.318;2022-11-11T17:11:02;18;13;
47705;PMS5003;33471;52.104;1.318;2022-11-11T17:13:33;22;19;
47705;PMS5003;33471;52.104;1.318;2022-11-11T17:16:00;13;12;
47705;PMS5003;33471;52.104;1.318;2022-11-11T17:18:30;13;11;